sensor_id;sensor_type;location;lat;lon;timestamp;P1;durP1;ratioP1;P2;durP2;ratioP2
37365;SDS011;23239;51.504;7.456;2023-07-31T00:00:00;6.1;;;3.3;;
37365;SDS011;23239;51.504;7.456;2023-07-31T00:01:00;6.1;;;3.3;;
37365;SDS011;23239;51.504;7.456;2023-07-31T00:02:00;6.1;;;3.3;;
37365;SDS011;23239;51.504;7.456;2023-07-31T00:03:00;6.1;;;3.3;;
37365;SDS011;23239;51.504;7.456;2023-07-31T00:04:00;6.1;;;3.3;;
37365;SDS011;23239;51.504;7.456;2023-07-31T00:05:00;8.6;;;3.6;;
37365;SDS011;23239;51.504;7.456;2023-07-31T00:06:00;8.6;;;3.6;;
37365;SDS011;23239;51.504;7.456;2023-07-31T00:07:00;8.6;;;3.6;;
37365;SDS011;23239;51.504;7.456;2023-07-31T00:08:00;8.6;;;3.6;;
37365;SDS011;23239;51.504;7.456;2023-07-31T00:09:00;8.6;;;3.6;;
37365;SDS011;23239;51.504;7.456;2023-07-31T00:10:00;6.6;;;3.4;;
37365;SDS011;23239;51.504;7.456;2023-07-31T00:11:00;6.6;;;3.4;;
37365;SDS011;23239;51.504;7.456;2023-07-31T00:12:00;6.6;;;3.4;;
37365;SDS011;23239;51.504;7.456;2023-07-31T00:13:00;6.6;;;3.4;;
37365;SDS011;23239;51.504;7.456;2023-07-31T00:14:00;6.6;;;3.4;;
37365;SDS011;23239;51.504;7.456;2023-07-31T00:15:00;6.5;;;2.9;;
37365;SDS011;23239;51.504;7.456;2023-07-31T00:16:00;6.5;;;2.9;;
37365;SDS011;23239;51.504;7.456;2023-07-31T00:17:00;6.5;;;2.9;;
37365;SDS011;23239;51.504;7.456;2023-07-31T00:18:00;6.5;;;2.9;;
37365;SDS011;23239;51.504;7.456;2023-07-31T00:19:00;6.5;;;2.9;;
37365;SDS011;23239;51.504;7.456;2023-07-31T00:20:00;6.8;;;3.5;;
37365;SDS011;23239;51.504;7.456;2023-07-31T00:21:00;6.8;;;3.5;;
37365;SDS011;23239;51.504;7.456;2023-07-31T00:22:00;6.8;;;3.5;;
37365;SDS011;23239;51.504;7.456;2023-07-31T00:23:00;6.8;;;3.5;;
37365;SDS011;23239;51.504;7.456;2023-07-31T00:24:00;6.8;;;3.5;;
37365;SDS011;23239;51.504;7.456;2023-07-31T00:25:00;8.2;;;3.6;;
37365;SDS011;23239;51.504;7.456;2023-07-31T00:26:00;8.2;;;3.6;;
37365;SDS011;23239;51.504;7.456;2023-07-31T00:27:00;8.2;;;3.6;;
37365;SDS011;23239;51.504;7.456;2023-07-31T00:28:00;8.2;;;3.6;;
37365;SDS011;23239;51.504;7.456;2023-07-31T00:29:00;8.2;;;3.6;;
37365;SDS011;23239;51.504;7.456;2023-07-31T00:30:00;7.0;;;3.7;;
37365;SDS011;23239;51.504;7.456;2023-07-31T00:31:00;7.0;;;3.7;;
37365;SDS011;23239;51.504;7.456;2023-07-31T00:32:00;7.0;;;3.7;;
37365;SDS011;23239;51.504;7.456;2023-07-31T00:33:00;7.0;;;3.7;;
37365;SDS011;23239;51.504;7.456;2023-07-31T00:34:00;7.0;;;3.7;;
37365;SDS011;23239;51.504;7.456;2023-07-31T00:35:00;7.3;;;3.2;;
37365;SDS011;23239;51.504;7.456;2023-07-31T00:36:00;7.3;;;3.2;;
37365;SDS011;23239;51.504;7.456;2023-07-31T00:37:00;7.3;;;3.2;;
37365;SDS011;23239;51.504;7.456;2023-07-31T00:38:00;7.3;;;3.2;;
37365;SDS011;23239;51.504;7.456;2023-07-31T00:39:00;7.3;;;3.2;;
37365;SDS011;23239;51.504;7.456;2023-07-31T00:40:00;8.5;;;3.7;;
37365;SDS011;23239;51.504;7.456;2023-07-31T00:41:00;8.5;;;3.7;;
37365;SDS011;23239;51.504;7.456;2023-07-31T00:42:00;8.5;;;3.7;;
37365;SDS011;23239;51.504;7.456;2023-07-31T00:43:00;8.5;;;3.7;;
37365;SDS011;23239;51.504;7.456;2023-07-31T00:44:00;8.5;;;3.7;;
37365;SDS011;23239;51.504;7.456;2023-07-31T00:45:00;8.0;;;4.0;;
37365;SDS011;23239;51.504;7.456;2023-07-31T00:46:00;8.0;;;4.0;;
37365;SDS011;23239;51.504;7.456;2023-07-31T00:47:00;8.0;;;4.0;;
37365;SDS011;23239;51.504;7.456;2023-07-31T00:48:00;8.0;;;4.0;;
37365;SDS011;23239;51.504;7.456;2023-07-31T00:49:00;8.0;;;4.0;;
37365;SDS011;23239;51.504;7.456;2023-07-31T00:50:00;8.4;;;4.1;;
37365;SDS011;23239;51.504;7.456;2023-07-31T00:51:00;8.4;;;4.1;;
37365;SDS011;23239;51.504;7.456;2023-07-31T00:52:00;8.4;;;4.1;;
37365;SDS011;23239;51.504;7.456;2023-07-31T00:53:00;8.4;;;4.1;;
37365;SDS011;23239;51.504;7.456;2023-07-31T00:54:00;8.4;;;4.1;;
37365;SDS011;23239;51.504;7.456;2023-07-31T00:55:00;8.8;;;4.0;;
37365;SDS011;23239;51.504;7.456;2023-07-31T00:56:00;8.8;;;4.0;;
37365;SDS011;23239;51.504;7.456;2023-07-31T00:57:00;8.8;;;4.0;;
37365;SDS011;23239;51.504;7.456;2023-07-31T00:58:00;8.8;;;4.0;;
37365;SDS011;23239;51.504;7.456;2023-07-31T00:59:00;8.8;;;4.0;;
37365;SDS011;23239;51.504;7.456;2023-07-31T01:00:00;8.3;;;4.0;;
37365;SDS011;23239;51.504;7.456;2023-07-31T01:01:00;8.3;;;4.0;;
37365;SDS011;23239;51.504;7.456;2023-07-31T01:02:00;8.3;;;4.0;;
37365;SDS011;23239;51.504;7.456;2023-07-31T01:03:00;8.3;;;4.0;;
37365;SDS011;23239;51.504;7.456;2023-07-31T01:04:00;8.3;;;4.0;;
37365;SDS011;23239;51.504;7.456;2023-07-31T01:05:00;9.6;;;4.7;;
37365;SDS011;23239;51.504;7.456;2023-07-31T01:06:04;9.6;;;4.7;;
37365;SDS011;23239;51.504;7.456;2023-07-31T01:07:01;9.6;;;4.7;;
37365;SDS011;23239;51.504;7.456;2023-07-31T01:08:02;9.6;;;4.7;;
37365;SDS011;23239;51.504;7.456;2023-07-31T01:09:02;9.6;;;4.7;;
37365;SDS011;23239;51.504;7.456;2023-07-31T01:10:02;9.8;;;4.3;;
37365;SDS011;23239;51.504;7.456;2023-07-31T01:11:02;9.8;;;4.3;;
37365;SDS011;23239;51.504;7.456;2023-07-31T01:12:01;9.8;;;4.3;;
37365;SDS011;23239;51.504;7.456;2023-07-31T01:13:00;9.8;;;4.3;;
37365;SDS011;23239;51.504;7.456;2023-07-31T01:14:00;9.8;;;4.3;;
37365;SDS011;23239;51.504;7.456;2023-07-31T01:15:02;9.1;;;4.5;;
37365;SDS011;23239;51.504;7.456;2023-07-31T01:16:00;9.1;;;4.5;;
37365;SDS011;23239;51.504;7.456;2023-07-31T01:17:00;9.1;;;4.5;;
37365;SDS011;23239;51.504;7.456;2023-07-31T01:18:00;9.1;;;4.5;;
37365;SDS011;23239;51.504;7.456;2023-07-31T01:19:00;9.1;;;4.5;;
37365;SDS011;23239;51.504;7.456;2023-07-31T01:20:01;13.7;;;5.4;;
37365;SDS011;23239;51.504;7.456;2023-07-31T01:21:03;13.7;;;5.4;;
37365;SDS011;23239;51.504;7.456;2023-07-31T01:22:07;13.7;;;5.4;;
37365;SDS011;23239;51.504;7.456;2023-07-31T01:23:11;13.7;;;5.4;;
37365;SDS011;23239;51.504;7.456;2023-07-31T01:24:06;13.7;;;5.4;;
37365;SDS011;23239;51.504;7.456;2023-07-31T01:25:05;15.5;;;5.4;;
37365;SDS011;23239;51.504;7.456;2023-07-31T01:26:03;15.5;;;5.4;;
37365;SDS011;23239;51.504;7.456;2023-07-31T01:27:02;15.5;;;5.4;;
37365;SDS011;23239;51.504;7.456;2023-07-31T01:28:01;15.5;;;5.4;;
37365;SDS011;23239;51.504;7.456;2023-07-31T01:29:01;15.5;;;5.4;;
37365;SDS011;23239;51.504;7.456;2023-07-31T01:30:03;13.3;;;5.8;;
37365;SDS011;23239;51.504;7.456;2023-07-31T01:31:00;13.3;;;5.8;;
37365;SDS011;23239;51.504;7.456;2023-07-31T01:32:02;13.3;;;5.8;;
37365;SDS011;23239;51.504;7.456;2023-07-31T01:33:00;13.3;;;5.8;;
37365;SDS011;23239;51.504;7.456;2023-07-31T01:34:01;13.3;;;5.8;;
37365;SDS011;23239;51.504;7.456;2023-07-31T01:35:00;13.0;;;4.9;;
37365;SDS011;23239;51.504;7.456;2023-07-31T01:36:00;13.0;;;4.9;;
37365;SDS011;23239;51.504;7.456;2023-07-31T01:37:00;13.0;;;4.9;;
37365;SDS011;23239;51.504;7.456;2023-07-31T01:38:00;13.0;;;4.9;;
37365;SDS011;23239;51.504;7.456;2023-07-31T01:39:00;13.0;;;4.9;;
37365;SDS011;23239;51.504;7.456;2023-07-31T01:40:00;13.0;;;4.9;;
37365;SDS011;23239;51.504;7.456;2023-07-31T01:41:00;13.4;;;5.0;;
37365;SDS011;23239;51.504;7.456;2023-07-31T01:42:00;13.4;;;5.0;;
37365;SDS011;23239;51.504;7.456;2023-07-31T01:43:00;13.4;;;5.0;;
37365;SDS011;23239;51.504;7.456;2023-07-31T01:44:00;13.4;;;5.0;;
37365;SDS011;23239;51.504;7.456;2023-07-31T01:45:00;13.4;;;5.0;;
37365;SDS011;23239;51.504;7.456;2023-07-31T01:46:00;10.4;;;4.4;;
37365;SDS011;23239;51.504;7.456;2023-07-31T01:47:00;10.4;;;4.4;;
37365;SDS011;23239;51.504;7.456;2023-07-31T01:48:00;10.4;;;4.4;;
37365;SDS011;23239;51.504;7.456;2023-07-31T01:49:00;10.4;;;4.4;;
37365;SDS011;23239;51.504;7.456;2023-07-31T01:50:00;10.4;;;4.4;;
37365;SDS011;23239;51.504;7.456;2023-07-31T01:51:00;12.3;;;5.2;;
37365;SDS011;23239;51.504;7.456;2023-07-31T01:52:00;12.3;;;5.2;;
37365;SDS011;23239;51.504;7.456;2023-07-31T01:53:00;12.3;;;5.2;;
37365;SDS011;23239;51.504;7.456;2023-07-31T01:54:00;12.3;;;5.2;;
37365;SDS011;23239;51.504;7.456;2023-07-31T01:55:00;12.3;;;5.2;;
37365;SDS011;23239;51.504;7.456;2023-07-31T01:56:00;11.7;;;4.9;;
37365;SDS011;23239;51.504;7.456;2023-07-31T01:57:00;11.7;;;4.9;;
37365;SDS011;23239;51.504;7.456;2023-07-31T01:58:01;11.7;;;4.9;;
37365;SDS011;23239;51.504;7.456;2023-07-31T01:59:00;11.7;;;4.9;;
37365;SDS011;23239;51.504;7.456;2023-07-31T02:00:00;11.7;;;4.9;;
37365;SDS011;23239;51.504;7.456;2023-07-31T02:01:00;11.5;;;5.0;;
37365;SDS011;23239;51.504;7.456;2023-07-31T02:02:00;11.5;;;5.0;;
37365;SDS011;23239;51.504;7.456;2023-07-31T02:03:00;11.5;;;5.0;;
37365;SDS011;23239;51.504;7.456;2023-07-31T02:04:00;11.5;;;5.0;;
37365;SDS011;23239;51.504;7.456;2023-07-31T02:05:00;11.5;;;5.0;;
37365;SDS011;23239;51.504;7.456;2023-07-31T02:06:00;11.4;;;4.9;;
37365;SDS011;23239;51.504;7.456;2023-07-31T02:07:00;11.4;;;4.9;;
37365;SDS011;23239;51.504;7.456;2023-07-31T02:08:00;11.4;;;4.9;;
37365;SDS011;23239;51.504;7.456;2023-07-31T02:09:00;11.4;;;4.9;;
37365;SDS011;23239;51.504;7.456;2023-07-31T02:10:00;11.4;;;4.9;;
37365;SDS011;23239;51.504;7.456;2023-07-31T02:11:00;9.5;;;4.4;;
37365;SDS011;23239;51.504;7.456;2023-07-31T02:12:00;9.5;;;4.4;;
37365;SDS011;23239;51.504;7.456;2023-07-31T02:13:00;9.5;;;4.4;;
37365;SDS011;23239;51.504;7.456;2023-07-31T02:14:00;9.5;;;4.4;;
37365;SDS011;23239;51.504;7.456;2023-07-31T02:15:00;9.5;;;4.4;;
37365;SDS011;23239;51.504;7.456;2023-07-31T02:16:00;10.1;;;4.4;;
37365;SDS011;23239;51.504;7.456;2023-07-31T02:17:00;10.1;;;4.4;;
37365;SDS011;23239;51.504;7.456;2023-07-31T02:18:00;10.1;;;4.4;;
37365;SDS011;23239;51.504;7.456;2023-07-31T02:19:00;10.1;;;4.4;;
37365;SDS011;23239;51.504;7.456;2023-07-31T02:20:00;10.1;;;4.4;;
37365;SDS011;23239;51.504;7.456;2023-07-31T02:21:00;9.1;;;4.0;;
37365;SDS011;23239;51.504;7.456;2023-07-31T02:22:00;9.1;;;4.0;;
37365;SDS011;23239;51.504;7.456;2023-07-31T02:23:00;9.1;;;4.0;;
37365;SDS011;23239;51.504;7.456;2023-07-31T02:24:00;9.1;;;4.0;;
37365;SDS011;23239;51.504;7.456;2023-07-31T02:25:00;9.1;;;4.0;;
37365;SDS011;23239;51.504;7.456;2023-07-31T02:26:00;10.9;;;4.3;;
37365;SDS011;23239;51.504;7.456;2023-07-31T02:27:00;10.9;;;4.3;;
37365;SDS011;23239;51.504;7.456;2023-07-31T02:28:00;10.9;;;4.3;;
37365;SDS011;23239;51.504;7.456;2023-07-31T02:29:00;10.9;;;4.3;;
37365;SDS011;23239;51.504;7.456;2023-07-31T02:30:00;10.9;;;4.3;;
37365;SDS011;23239;51.504;7.456;2023-07-31T02:31:00;11.0;;;4.6;;
37365;SDS011;23239;51.504;7.456;2023-07-31T02:32:00;11.0;;;4.6;;
37365;SDS011;23239;51.504;7.456;2023-07-31T02:33:00;11.0;;;4.6;;
37365;SDS011;23239;51.504;7.456;2023-07-31T02:34:00;11.0;;;4.6;;
37365;SDS011;23239;51.504;7.456;2023-07-31T02:35:00;11.0;;;4.6;;
37365;SDS011;23239;51.504;7.456;2023-07-31T02:36:00;11.1;;;4.3;;
37365;SDS011;23239;51.504;7.456;2023-07-31T02:37:00;11.1;;;4.3;;
37365;SDS011;23239;51.504;7.456;2023-07-31T02:38:00;11.1;;;4.3;;
37365;SDS011;23239;51.504;7.456;2023-07-31T02:39:00;11.1;;;4.3;;
37365;SDS011;23239;51.504;7.456;2023-07-31T02:40:00;11.1;;;4.3;;
37365;SDS011;23239;51.504;7.456;2023-07-31T02:41:00;11.7;;;4.6;;
37365;SDS011;23239;51.504;7.456;2023-07-31T02:42:00;11.7;;;4.6;;
37365;SDS011;23239;51.504;7.456;2023-07-31T02:43:00;11.7;;;4.6;;
37365;SDS011;23239;51.504;7.456;2023-07-31T02:44:00;11.7;;;4.6;;
37365;SDS011;23239;51.504;7.456;2023-07-31T02:45:00;11.7;;;4.6;;
37365;SDS011;23239;51.504;7.456;2023-07-31T02:46:00;10.1;;;4.5;;
37365;SDS011;23239;51.504;7.456;2023-07-31T02:47:00;10.1;;;4.5;;
37365;SDS011;23239;51.504;7.456;2023-07-31T02:48:00;10.1;;;4.5;;
37365;SDS011;23239;51.504;7.456;2023-07-31T02:49:00;10.1;;;4.5;;
37365;SDS011;23239;51.504;7.456;2023-07-31T02:50:00;10.1;;;4.5;;
37365;SDS011;23239;51.504;7.456;2023-07-31T02:51:00;8.7;;;4.1;;
37365;SDS011;23239;51.504;7.456;2023-07-31T02:52:00;8.7;;;4.1;;
37365;SDS011;23239;51.504;7.456;2023-07-31T02:53:00;8.7;;;4.1;;
37365;SDS011;23239;51.504;7.456;2023-07-31T02:54:00;8.7;;;4.1;;
37365;SDS011;23239;51.504;7.456;2023-07-31T02:55:00;8.7;;;4.1;;
37365;SDS011;23239;51.504;7.456;2023-07-31T02:56:00;10.9;;;4.4;;
37365;SDS011;23239;51.504;7.456;2023-07-31T02:57:00;10.9;;;4.4;;
37365;SDS011;23239;51.504;7.456;2023-07-31T02:58:00;10.9;;;4.4;;
37365;SDS011;23239;51.504;7.456;2023-07-31T02:59:00;10.9;;;4.4;;
37365;SDS011;23239;51.504;7.456;2023-07-31T03:00:00;10.9;;;4.4;;
37365;SDS011;23239;51.504;7.456;2023-07-31T03:01:00;12.6;;;4.9;;
37365;SDS011;23239;51.504;7.456;2023-07-31T03:02:00;12.6;;;4.9;;
37365;SDS011;23239;51.504;7.456;2023-07-31T03:03:00;12.6;;;4.9;;
37365;SDS011;23239;51.504;7.456;2023-07-31T03:04:00;12.6;;;4.9;;
37365;SDS011;23239;51.504;7.456;2023-07-31T03:05:00;12.6;;;4.9;;
37365;SDS011;23239;51.504;7.456;2023-07-31T03:06:00;14.0;;;5.0;;
37365;SDS011;23239;51.504;7.456;2023-07-31T03:07:00;14.0;;;5.0;;
37365;SDS011;23239;51.504;7.456;2023-07-31T03:08:01;14.0;;;5.0;;
37365;SDS011;23239;51.504;7.456;2023-07-31T03:09:00;14.0;;;5.0;;
37365;SDS011;23239;51.504;7.456;2023-07-31T03:10:00;14.0;;;5.0;;
37365;SDS011;23239;51.504;7.456;2023-07-31T03:11:00;12.1;;;4.6;;
37365;SDS011;23239;51.504;7.456;2023-07-31T03:12:00;12.1;;;4.6;;
37365;SDS011;23239;51.504;7.456;2023-07-31T03:13:00;12.1;;;4.6;;
37365;SDS011;23239;51.504;7.456;2023-07-31T03:14:00;12.1;;;4.6;;
37365;SDS011;23239;51.504;7.456;2023-07-31T03:15:00;12.1;;;4.6;;
37365;SDS011;23239;51.504;7.456;2023-07-31T03:16:00;12.7;;;4.5;;
37365;SDS011;23239;51.504;7.456;2023-07-31T03:17:00;12.7;;;4.5;;
37365;SDS011;23239;51.504;7.456;2023-07-31T03:18:00;12.7;;;4.5;;
37365;SDS011;23239;51.504;7.456;2023-07-31T03:19:00;12.7;;;4.5;;
37365;SDS011;23239;51.504;7.456;2023-07-31T03:20:00;12.7;;;4.5;;
37365;SDS011;23239;51.504;7.456;2023-07-31T03:21:00;13.0;;;5.1;;
37365;SDS011;23239;51.504;7.456;2023-07-31T03:22:00;13.0;;;5.1;;
37365;SDS011;23239;51.504;7.456;2023-07-31T03:23:00;13.0;;;5.1;;
37365;SDS011;23239;51.504;7.456;2023-07-31T03:24:00;13.0;;;5.1;;
37365;SDS011;23239;51.504;7.456;2023-07-31T03:25:00;13.0;;;5.1;;
37365;SDS011;23239;51.504;7.456;2023-07-31T03:26:00;12.9;;;4.7;;
37365;SDS011;23239;51.504;7.456;2023-07-31T03:27:00;12.9;;;4.7;;
37365;SDS011;23239;51.504;7.456;2023-07-31T03:28:00;12.9;;;4.7;;
37365;SDS011;23239;51.504;7.456;2023-07-31T03:29:00;12.9;;;4.7;;
37365;SDS011;23239;51.504;7.456;2023-07-31T03:30:00;12.9;;;4.7;;
37365;SDS011;23239;51.504;7.456;2023-07-31T03:31:00;13.5;;;4.9;;
37365;SDS011;23239;51.504;7.456;2023-07-31T03:32:00;13.5;;;4.9;;
37365;SDS011;23239;51.504;7.456;2023-07-31T03:33:00;13.5;;;4.9;;
37365;SDS011;23239;51.504;7.456;2023-07-31T03:34:00;13.5;;;4.9;;
37365;SDS011;23239;51.504;7.456;2023-07-31T03:35:00;13.5;;;4.9;;
37365;SDS011;23239;51.504;7.456;2023-07-31T03:36:00;11.1;;;4.5;;
37365;SDS011;23239;51.504;7.456;2023-07-31T03:37:00;11.1;;;4.5;;
37365;SDS011;23239;51.504;7.456;2023-07-31T03:38:00;11.1;;;4.5;;
37365;SDS011;23239;51.504;7.456;2023-07-31T03:39:00;11.1;;;4.5;;
37365;SDS011;23239;51.504;7.456;2023-07-31T03:40:00;11.1;;;4.5;;
37365;SDS011;23239;51.504;7.456;2023-07-31T03:41:00;9.4;;;4.0;;
37365;SDS011;23239;51.504;7.456;2023-07-31T03:42:00;9.4;;;4.0;;
37365;SDS011;23239;51.504;7.456;2023-07-31T03:43:00;9.4;;;4.0;;
37365;SDS011;23239;51.504;7.456;2023-07-31T03:44:00;9.4;;;4.0;;
37365;SDS011;23239;51.504;7.456;2023-07-31T03:45:00;9.4;;;4.0;;
37365;SDS011;23239;51.504;7.456;2023-07-31T03:46:00;11.4;;;4.9;;
37365;SDS011;23239;51.504;7.456;2023-07-31T03:47:00;11.4;;;4.9;;
37365;SDS011;23239;51.504;7.456;2023-07-31T03:48:00;11.4;;;4.9;;
37365;SDS011;23239;51.504;7.456;2023-07-31T03:49:00;11.4;;;4.9;;
37365;SDS011;23239;51.504;7.456;2023-07-31T03:50:00;11.4;;;4.9;;
37365;SDS011;23239;51.504;7.456;2023-07-31T03:51:00;11.6;;;4.8;;
37365;SDS011;23239;51.504;7.456;2023-07-31T03:52:00;11.6;;;4.8;;
37365;SDS011;23239;51.504;7.456;2023-07-31T03:53:00;11.6;;;4.8;;
37365;SDS011;23239;51.504;7.456;2023-07-31T03:54:00;11.6;;;4.8;;
37365;SDS011;23239;51.504;7.456;2023-07-31T03:55:00;11.6;;;4.8;;
37365;SDS011;23239;51.504;7.456;2023-07-31T03:56:00;12.7;;;4.8;;
37365;SDS011;23239;51.504;7.456;2023-07-31T03:57:00;12.7;;;4.8;;
37365;SDS011;23239;51.504;7.456;2023-07-31T03:58:00;12.7;;;4.8;;
37365;SDS011;23239;51.504;7.456;2023-07-31T03:59:00;12.7;;;4.8;;
37365;SDS011;23239;51.504;7.456;2023-07-31T04:00:00;12.7;;;4.8;;
37365;SDS011;23239;51.504;7.456;2023-07-31T04:01:00;9.9;;;4.4;;
37365;SDS011;23239;51.504;7.456;2023-07-31T04:02:00;9.9;;;4.4;;
37365;SDS011;23239;51.504;7.456;2023-07-31T04:03:00;9.9;;;4.4;;
37365;SDS011;23239;51.504;7.456;2023-07-31T04:04:00;9.9;;;4.4;;
37365;SDS011;23239;51.504;7.456;2023-07-31T04:05:00;9.9;;;4.4;;
37365;SDS011;23239;51.504;7.456;2023-07-31T04:06:00;11.5;;;4.8;;
37365;SDS011;23239;51.504;7.456;2023-07-31T04:07:00;11.5;;;4.8;;
37365;SDS011;23239;51.504;7.456;2023-07-31T04:08:00;11.5;;;4.8;;
37365;SDS011;23239;51.504;7.456;2023-07-31T04:09:01;11.5;;;4.8;;
37365;SDS011;23239;51.504;7.456;2023-07-31T04:10:00;11.5;;;4.8;;
37365;SDS011;23239;51.504;7.456;2023-07-31T04:11:00;10.4;;;4.4;;
37365;SDS011;23239;51.504;7.456;2023-07-31T04:12:00;10.4;;;4.4;;
37365;SDS011;23239;51.504;7.456;2023-07-31T04:13:00;10.4;;;4.4;;
37365;SDS011;23239;51.504;7.456;2023-07-31T04:14:00;10.4;;;4.4;;
37365;SDS011;23239;51.504;7.456;2023-07-31T04:15:00;10.4;;;4.4;;
37365;SDS011;23239;51.504;7.456;2023-07-31T04:16:00;11.6;;;5.0;;
37365;SDS011;23239;51.504;7.456;2023-07-31T04:17:00;11.6;;;5.0;;
37365;SDS011;23239;51.504;7.456;2023-07-31T04:18:00;11.6;;;5.0;;
37365;SDS011;23239;51.504;7.456;2023-07-31T04:19:00;11.6;;;5.0;;
37365;SDS011;23239;51.504;7.456;2023-07-31T04:20:00;11.6;;;5.0;;
37365;SDS011;23239;51.504;7.456;2023-07-31T04:21:00;11.4;;;4.3;;
37365;SDS011;23239;51.504;7.456;2023-07-31T04:22:00;11.4;;;4.3;;
37365;SDS011;23239;51.504;7.456;2023-07-31T04:23:00;11.4;;;4.3;;
37365;SDS011;23239;51.504;7.456;2023-07-31T04:24:00;11.4;;;4.3;;
37365;SDS011;23239;51.504;7.456;2023-07-31T04:25:00;11.4;;;4.3;;
37365;SDS011;23239;51.504;7.456;2023-07-31T04:26:00;11.2;;;4.1;;
37365;SDS011;23239;51.504;7.456;2023-07-31T04:27:00;11.2;;;4.1;;
37365;SDS011;23239;51.504;7.456;2023-07-31T04:28:00;11.2;;;4.1;;
37365;SDS011;23239;51.504;7.456;2023-07-31T04:29:00;11.2;;;4.1;;
37365;SDS011;23239;51.504;7.456;2023-07-31T04:30:00;11.2;;;4.1;;
37365;SDS011;23239;51.504;7.456;2023-07-31T04:31:00;11.9;;;4.8;;
37365;SDS011;23239;51.504;7.456;2023-07-31T04:32:00;11.9;;;4.8;;
37365;SDS011;23239;51.504;7.456;2023-07-31T04:33:00;11.9;;;4.8;;
37365;SDS011;23239;51.504;7.456;2023-07-31T04:34:00;11.9;;;4.8;;
37365;SDS011;23239;51.504;7.456;2023-07-31T04:35:00;11.9;;;4.8;;
37365;SDS011;23239;51.504;7.456;2023-07-31T04:36:00;11.9;;;4.5;;
37365;SDS011;23239;51.504;7.456;2023-07-31T04:37:00;11.9;;;4.5;;
37365;SDS011;23239;51.504;7.456;2023-07-31T04:38:00;11.9;;;4.5;;
37365;SDS011;23239;51.504;7.456;2023-07-31T04:39:00;11.9;;;4.5;;
37365;SDS011;23239;51.504;7.456;2023-07-31T04:40:00;11.9;;;4.5;;
37365;SDS011;23239;51.504;7.456;2023-07-31T04:41:00;9.6;;;4.6;;
37365;SDS011;23239;51.504;7.456;2023-07-31T04:42:00;9.6;;;4.6;;
37365;SDS011;23239;51.504;7.456;2023-07-31T04:43:00;9.6;;;4.6;;
37365;SDS011;23239;51.504;7.456;2023-07-31T04:44:00;9.6;;;4.6;;
37365;SDS011;23239;51.504;7.456;2023-07-31T04:45:00;9.6;;;4.6;;
37365;SDS011;23239;51.504;7.456;2023-07-31T04:46:00;14.4;;;4.9;;
37365;SDS011;23239;51.504;7.456;2023-07-31T04:47:00;14.4;;;4.9;;
37365;SDS011;23239;51.504;7.456;2023-07-31T04:48:00;14.4;;;4.9;;
37365;SDS011;23239;51.504;7.456;2023-07-31T04:49:00;14.4;;;4.9;;
37365;SDS011;23239;51.504;7.456;2023-07-31T04:50:00;14.4;;;4.9;;
37365;SDS011;23239;51.504;7.456;2023-07-31T04:51:00;9.7;;;4.4;;
37365;SDS011;23239;51.504;7.456;2023-07-31T04:52:00;9.7;;;4.4;;
37365;SDS011;23239;51.504;7.456;2023-07-31T04:53:00;9.7;;;4.4;;
37365;SDS011;23239;51.504;7.456;2023-07-31T04:54:00;9.7;;;4.4;;
37365;SDS011;23239;51.504;7.456;2023-07-31T04:55:00;9.7;;;4.4;;
37365;SDS011;23239;51.504;7.456;2023-07-31T04:56:00;11.6;;;5.0;;
37365;SDS011;23239;51.504;7.456;2023-07-31T04:57:00;11.6;;;5.0;;
37365;SDS011;23239;51.504;7.456;2023-07-31T04:58:00;11.6;;;5.0;;
37365;SDS011;23239;51.504;7.456;2023-07-31T04:59:00;11.6;;;5.0;;
37365;SDS011;23239;51.504;7.456;2023-07-31T05:00:00;11.6;;;5.0;;
37365;SDS011;23239;51.504;7.456;2023-07-31T05:01:00;11.1;;;4.7;;
37365;SDS011;23239;51.504;7.456;2023-07-31T05:02:00;11.1;;;4.7;;
37365;SDS011;23239;51.504;7.456;2023-07-31T05:03:00;11.1;;;4.7;;
37365;SDS011;23239;51.504;7.456;2023-07-31T05:04:00;11.1;;;4.7;;
37365;SDS011;23239;51.504;7.456;2023-07-31T05:05:00;11.1;;;4.7;;
37365;SDS011;23239;51.504;7.456;2023-07-31T05:06:00;11.5;;;4.4;;
37365;SDS011;23239;51.504;7.456;2023-07-31T05:07:00;11.5;;;4.4;;
37365;SDS011;23239;51.504;7.456;2023-07-31T05:08:00;11.5;;;4.4;;
37365;SDS011;23239;51.504;7.456;2023-07-31T05:09:00;11.5;;;4.4;;
37365;SDS011;23239;51.504;7.456;2023-07-31T05:10:00;11.5;;;4.4;;
37365;SDS011;23239;51.504;7.456;2023-07-31T05:11:01;9.1;;;4.2;;
37365;SDS011;23239;51.504;7.456;2023-07-31T05:12:00;9.1;;;4.2;;
37365;SDS011;23239;51.504;7.456;2023-07-31T05:13:00;9.1;;;4.2;;
37365;SDS011;23239;51.504;7.456;2023-07-31T05:14:01;9.1;;;4.2;;
37365;SDS011;23239;51.504;7.456;2023-07-31T05:15:00;9.1;;;4.2;;
37365;SDS011;23239;51.504;7.456;2023-07-31T05:16:00;11.3;;;4.3;;
37365;SDS011;23239;51.504;7.456;2023-07-31T05:17:00;11.3;;;4.3;;
37365;SDS011;23239;51.504;7.456;2023-07-31T05:18:00;11.3;;;4.3;;
37365;SDS011;23239;51.504;7.456;2023-07-31T05:19:00;11.3;;;4.3;;
37365;SDS011;23239;51.504;7.456;2023-07-31T05:20:00;11.3;;;4.3;;
37365;SDS011;23239;51.504;7.456;2023-07-31T05:21:00;10.5;;;4.3;;
37365;SDS011;23239;51.504;7.456;2023-07-31T05:22:00;10.5;;;4.3;;
37365;SDS011;23239;51.504;7.456;2023-07-31T05:23:00;10.5;;;4.3;;
37365;SDS011;23239;51.504;7.456;2023-07-31T05:24:00;10.5;;;4.3;;
37365;SDS011;23239;51.504;7.456;2023-07-31T05:25:00;10.5;;;4.3;;
37365;SDS011;23239;51.504;7.456;2023-07-31T05:26:03;13.2;;;5.0;;
37365;SDS011;23239;51.504;7.456;2023-07-31T05:27:00;13.2;;;5.0;;
37365;SDS011;23239;51.504;7.456;2023-07-31T05:28:00;13.2;;;5.0;;
37365;SDS011;23239;51.504;7.456;2023-07-31T05:29:00;13.2;;;5.0;;
37365;SDS011;23239;51.504;7.456;2023-07-31T05:30:00;13.2;;;5.0;;
37365;SDS011;23239;51.504;7.456;2023-07-31T05:31:00;13.2;;;4.6;;
37365;SDS011;23239;51.504;7.456;2023-07-31T05:32:00;13.2;;;4.6;;
37365;SDS011;23239;51.504;7.456;2023-07-31T05:33:00;13.2;;;4.6;;
37365;SDS011;23239;51.504;7.456;2023-07-31T05:34:00;13.2;;;4.6;;
37365;SDS011;23239;51.504;7.456;2023-07-31T05:35:00;13.2;;;4.6;;
37365;SDS011;23239;51.504;7.456;2023-07-31T05:36:00;11.6;;;4.9;;
37365;SDS011;23239;51.504;7.456;2023-07-31T05:37:01;11.6;;;4.9;;
37365;SDS011;23239;51.504;7.456;2023-07-31T05:38:00;11.6;;;4.9;;
37365;SDS011;23239;51.504;7.456;2023-07-31T05:39:00;11.6;;;4.9;;
37365;SDS011;23239;51.504;7.456;2023-07-31T05:40:00;11.6;;;4.9;;
37365;SDS011;23239;51.504;7.456;2023-07-31T05:41:00;10.7;;;4.5;;
37365;SDS011;23239;51.504;7.456;2023-07-31T05:42:00;10.7;;;4.5;;
37365;SDS011;23239;51.504;7.456;2023-07-31T05:43:00;10.7;;;4.5;;
37365;SDS011;23239;51.504;7.456;2023-07-31T05:44:00;10.7;;;4.5;;
37365;SDS011;23239;51.504;7.456;2023-07-31T05:45:00;10.7;;;4.5;;
37365;SDS011;23239;51.504;7.456;2023-07-31T05:46:00;13.5;;;5.0;;
37365;SDS011;23239;51.504;7.456;2023-07-31T05:47:00;13.5;;;5.0;;
37365;SDS011;23239;51.504;7.456;2023-07-31T05:48:00;13.5;;;5.0;;
37365;SDS011;23239;51.504;7.456;2023-07-31T05:49:00;13.5;;;5.0;;
37365;SDS011;23239;51.504;7.456;2023-07-31T05:50:00;13.5;;;5.0;;
37365;SDS011;23239;51.504;7.456;2023-07-31T05:51:00;12.5;;;4.7;;
37365;SDS011;23239;51.504;7.456;2023-07-31T05:52:00;12.5;;;4.7;;
37365;SDS011;23239;51.504;7.456;2023-07-31T05:53:00;12.5;;;4.7;;
37365;SDS011;23239;51.504;7.456;2023-07-31T05:54:00;12.5;;;4.7;;
37365;SDS011;23239;51.504;7.456;2023-07-31T05:55:00;12.5;;;4.7;;
37365;SDS011;23239;51.504;7.456;2023-07-31T05:56:00;7.2;;;3.9;;
37365;SDS011;23239;51.504;7.456;2023-07-31T05:57:00;7.2;;;3.9;;
37365;SDS011;23239;51.504;7.456;2023-07-31T05:58:00;7.2;;;3.9;;
37365;SDS011;23239;51.504;7.456;2023-07-31T05:59:00;7.2;;;3.9;;
37365;SDS011;23239;51.504;7.456;2023-07-31T06:00:00;7.2;;;3.9;;
37365;SDS011;23239;51.504;7.456;2023-07-31T06:01:00;12.0;;;4.7;;
37365;SDS011;23239;51.504;7.456;2023-07-31T06:02:00;12.0;;;4.7;;
37365;SDS011;23239;51.504;7.456;2023-07-31T06:03:00;12.0;;;4.7;;
37365;SDS011;23239;51.504;7.456;2023-07-31T06:04:00;12.0;;;4.7;;
37365;SDS011;23239;51.504;7.456;2023-07-31T06:05:00;12.0;;;4.7;;
37365;SDS011;23239;51.504;7.456;2023-07-31T06:06:00;8.8;;;4.2;;
37365;SDS011;23239;51.504;7.456;2023-07-31T06:07:00;8.8;;;4.2;;
37365;SDS011;23239;51.504;7.456;2023-07-31T06:08:00;8.8;;;4.2;;